Aviation Digital Data Service (ADDS)

Output produced by METARs form (0844 UTC 26 September 2016)
found at http://aviationweather.gov/adds/metars/
 
KDEN 260536Z 2606/2712 20009KT P6SM SKC 
     FM261400 27006KT P6SM SKC 
     FM261700 03006KT P6SM SKC 
     FM270100 14006KT P6SM SKC 
     FM270600 20008KT P6SM SKC